sensor_id;sensor_type;location;lat;lon;timestamp;P1;durP1;ratioP1;P2;durP2;ratioP2
31798;SDS011;18374;51.136;3.502;2022-11-15T00:02:22;64.45;;;29.63;;
31798;SDS011;18374;51.136;3.502;2022-11-15T00:05:09;70.70;;;30.75;;
31798;SDS011;18374;51.136;3.502;2022-11-15T00:07:56;67.15;;;29.73;;
31798;SDS011;18374;51.136;3.502;2022-11-15T00:10:42;69.80;;;30.30;;
31798;SDS011;18374;51.136;3.502;2022-11-15T00:13:39;70.15;;;30.88;;
31798;SDS011;18374;51.136;3.502;2022-11-15T00:16:26;61.92;;;30.27;;
31798;SDS011;18374;51.136;3.502;2022-11-15T00:19:12;63.47;;;27.67;;
31798;SDS011;18374;51.136;3.502;2022-11-15T00:21:59;59.35;;;28.77;;
31798;SDS011;18374;51.136;3.502;2022-11-15T00:24:45;59.03;;;29.17;;
31798;SDS011;18374;51.136;3.502;2022-11-15T00:27:31;59.85;;;27.15;;
31798;SDS011;18374;51.136;3.502;2022-11-15T00:33:04;63.70;;;27.52;;
31798;SDS011;18374;51.136;3.502;2022-11-15T00:35:52;61.55;;;27.92;;
31798;SDS011;18374;51.136;3.502;2022-11-15T00:38:39;51.90;;;26.35;;
31798;SDS011;18374;51.136;3.502;2022-11-15T00:41:26;60.33;;;26.33;;
31798;SDS011;18374;51.136;3.502;2022-11-15T00:44:12;59.03;;;26.15;;
31798;SDS011;18374;51.136;3.502;2022-11-15T00:46:58;46.00;;;25.02;;
31798;SDS011;18374;51.136;3.502;2022-11-15T00:49:44;60.95;;;27.20;;
31798;SDS011;18374;51.136;3.502;2022-11-15T00:52:30;60.22;;;25.92;;
31798;SDS011;18374;51.136;3.502;2022-11-15T00:55:17;60.58;;;25.92;;
31798;SDS011;18374;51.136;3.502;2022-11-15T00:58:04;58.70;;;25.45;;
31798;SDS011;18374;51.136;3.502;2022-11-15T01:00:50;50.95;;;24.60;;
31798;SDS011;18374;51.136;3.502;2022-11-15T01:03:37;59.83;;;26.50;;
31798;SDS011;18374;51.136;3.502;2022-11-15T01:06:25;57.55;;;24.63;;
31798;SDS011;18374;51.136;3.502;2022-11-15T01:09:12;53.47;;;24.00;;
31798;SDS011;18374;51.136;3.502;2022-11-15T01:11:59;50.92;;;23.35;;
31798;SDS011;18374;51.136;3.502;2022-11-15T01:14:45;40.28;;;20.98;;
31798;SDS011;18374;51.136;3.502;2022-11-15T01:17:32;46.45;;;21.42;;
31798;SDS011;18374;51.136;3.502;2022-11-15T01:20:19;52.47;;;21.08;;
31798;SDS011;18374;51.136;3.502;2022-11-15T01:23:05;44.40;;;20.55;;
31798;SDS011;18374;51.136;3.502;2022-11-15T01:25:52;43.63;;;19.83;;
31798;SDS011;18374;51.136;3.502;2022-11-15T01:28:44;45.65;;;21.27;;
31798;SDS011;18374;51.136;3.502;2022-11-15T01:31:30;49.92;;;19.92;;
31798;SDS011;18374;51.136;3.502;2022-11-15T01:37:02;45.13;;;20.45;;
31798;SDS011;18374;51.136;3.502;2022-11-15T01:39:48;48.05;;;19.88;;
31798;SDS011;18374;51.136;3.502;2022-11-15T01:42:35;45.90;;;19.63;;
31798;SDS011;18374;51.136;3.502;2022-11-15T01:45:21;53.05;;;20.02;;
31798;SDS011;18374;51.136;3.502;2022-11-15T01:48:07;41.83;;;21.25;;
31798;SDS011;18374;51.136;3.502;2022-11-15T01:50:56;44.67;;;20.20;;
31798;SDS011;18374;51.136;3.502;2022-11-15T01:53:45;41.90;;;19.75;;
31798;SDS011;18374;51.136;3.502;2022-11-15T01:56:36;45.83;;;19.58;;
31798;SDS011;18374;51.136;3.502;2022-11-15T01:59:35;45.10;;;19.60;;
31798;SDS011;18374;51.136;3.502;2022-11-15T02:02:23;47.83;;;18.60;;
31798;SDS011;18374;51.136;3.502;2022-11-15T02:07:56;35.55;;;17.40;;
31798;SDS011;18374;51.136;3.502;2022-11-15T02:10:43;36.40;;;16.77;;
31798;SDS011;18374;51.136;3.502;2022-11-15T02:13:29;50.03;;;19.77;;
31798;SDS011;18374;51.136;3.502;2022-11-15T02:26:08;37.38;;;17.38;;
31798;SDS011;18374;51.136;3.502;2022-11-15T02:32:39;37.88;;;15.85;;
31798;SDS011;18374;51.136;3.502;2022-11-15T02:36:00;33.95;;;16.10;;
31798;SDS011;18374;51.136;3.502;2022-11-15T02:39:00;43.60;;;17.27;;
31798;SDS011;18374;51.136;3.502;2022-11-15T02:41:53;42.83;;;17.30;;
31798;SDS011;18374;51.136;3.502;2022-11-15T02:45:15;35.95;;;16.92;;
31798;SDS011;18374;51.136;3.502;2022-11-15T02:48:08;44.05;;;16.85;;
31798;SDS011;18374;51.136;3.502;2022-11-15T02:50:56;35.95;;;16.20;;
31798;SDS011;18374;51.136;3.502;2022-11-15T02:53:44;31.75;;;16.05;;
31798;SDS011;18374;51.136;3.502;2022-11-15T02:56:30;39.42;;;16.65;;
31798;SDS011;18374;51.136;3.502;2022-11-15T02:59:20;37.65;;;16.75;;
31798;SDS011;18374;51.136;3.502;2022-11-15T03:09:03;38.17;;;14.68;;
31798;SDS011;18374;51.136;3.502;2022-11-15T03:12:15;32.88;;;13.60;;
31798;SDS011;18374;51.136;3.502;2022-11-15T03:15:32;25.40;;;12.85;;
31798;SDS011;18374;51.136;3.502;2022-11-15T03:18:32;28.60;;;12.32;;
31798;SDS011;18374;51.136;3.502;2022-11-15T03:21:24;24.63;;;11.48;;
31798;SDS011;18374;51.136;3.502;2022-11-15T03:24:14;26.10;;;10.60;;
31798;SDS011;18374;51.136;3.502;2022-11-15T03:27:10;28.35;;;11.18;;
31798;SDS011;18374;51.136;3.502;2022-11-15T03:30:04;22.35;;;10.13;;
31798;SDS011;18374;51.136;3.502;2022-11-15T03:32:53;25.90;;;10.65;;
31798;SDS011;18374;51.136;3.502;2022-11-15T03:35:44;19.55;;;9.05;;
31798;SDS011;18374;51.136;3.502;2022-11-15T03:38:31;23.10;;;9.73;;
31798;SDS011;18374;51.136;3.502;2022-11-15T03:41:31;22.60;;;9.43;;
31798;SDS011;18374;51.136;3.502;2022-11-15T03:47:32;21.27;;;10.63;;
31798;SDS011;18374;51.136;3.502;2022-11-15T03:53:12;23.63;;;10.93;;
31798;SDS011;18374;51.136;3.502;2022-11-15T03:55:58;23.52;;;10.82;;
31798;SDS011;18374;51.136;3.502;2022-11-15T03:58:45;21.10;;;10.90;;
31798;SDS011;18374;51.136;3.502;2022-11-15T04:01:31;18.20;;;10.57;;
31798;SDS011;18374;51.136;3.502;2022-11-15T04:04:17;22.85;;;9.93;;
31798;SDS011;18374;51.136;3.502;2022-11-15T04:09:49;21.60;;;9.32;;
31798;SDS011;18374;51.136;3.502;2022-11-15T04:12:47;19.40;;;8.25;;
31798;SDS011;18374;51.136;3.502;2022-11-15T04:15:34;21.80;;;9.35;;
31798;SDS011;18374;51.136;3.502;2022-11-15T04:18:21;20.15;;;9.63;;
31798;SDS011;18374;51.136;3.502;2022-11-15T04:21:08;16.60;;;8.38;;
31798;SDS011;18374;51.136;3.502;2022-11-15T04:24:12;17.45;;;7.88;;
31798;SDS011;18374;51.136;3.502;2022-11-15T04:26:59;18.83;;;7.65;;
31798;SDS011;18374;51.136;3.502;2022-11-15T04:29:46;21.98;;;7.88;;
31798;SDS011;18374;51.136;3.502;2022-11-15T04:32:32;22.70;;;7.72;;
31798;SDS011;18374;51.136;3.502;2022-11-15T04:35:18;13.95;;;6.95;;
31798;SDS011;18374;51.136;3.502;2022-11-15T04:38:05;13.82;;;7.50;;
31798;SDS011;18374;51.136;3.502;2022-11-15T04:40:54;20.67;;;8.05;;
31798;SDS011;18374;51.136;3.502;2022-11-15T04:43:40;17.77;;;7.72;;
31798;SDS011;18374;51.136;3.502;2022-11-15T04:49:13;26.80;;;8.67;;
31798;SDS011;18374;51.136;3.502;2022-11-15T04:54:46;19.77;;;7.80;;
31798;SDS011;18374;51.136;3.502;2022-11-15T05:00:18;20.80;;;8.53;;
31798;SDS011;18374;51.136;3.502;2022-11-15T05:03:05;21.08;;;8.55;;
31798;SDS011;18374;51.136;3.502;2022-11-15T05:06:09;17.92;;;7.95;;
31798;SDS011;18374;51.136;3.502;2022-11-15T05:08:56;19.88;;;8.25;;
31798;SDS011;18374;51.136;3.502;2022-11-15T05:11:42;15.98;;;8.18;;
31798;SDS011;18374;51.136;3.502;2022-11-15T05:14:29;16.77;;;8.00;;
31798;SDS011;18374;51.136;3.502;2022-11-15T05:20:02;19.50;;;7.72;;
31798;SDS011;18374;51.136;3.502;2022-11-15T05:22:48;17.70;;;8.30;;
31798;SDS011;18374;51.136;3.502;2022-11-15T05:25:35;20.20;;;7.50;;
31798;SDS011;18374;51.136;3.502;2022-11-15T05:28:22;15.40;;;6.93;;
31798;SDS011;18374;51.136;3.502;2022-11-15T05:31:09;16.63;;;7.13;;
31798;SDS011;18374;51.136;3.502;2022-11-15T05:34:02;14.30;;;6.63;;
31798;SDS011;18374;51.136;3.502;2022-11-15T05:36:50;13.38;;;6.57;;
31798;SDS011;18374;51.136;3.502;2022-11-15T05:39:37;15.23;;;6.90;;
31798;SDS011;18374;51.136;3.502;2022-11-15T05:45:10;18.15;;;7.90;;
31798;SDS011;18374;51.136;3.502;2022-11-15T05:47:57;14.55;;;7.05;;
31798;SDS011;18374;51.136;3.502;2022-11-15T05:50:46;14.63;;;6.30;;
31798;SDS011;18374;51.136;3.502;2022-11-15T05:53:33;11.13;;;6.30;;
31798;SDS011;18374;51.136;3.502;2022-11-15T05:56:22;11.25;;;5.78;;
31798;SDS011;18374;51.136;3.502;2022-11-15T05:59:08;11.43;;;5.93;;
31798;SDS011;18374;51.136;3.502;2022-11-15T06:01:56;21.90;;;5.80;;
31798;SDS011;18374;51.136;3.502;2022-11-15T06:04:42;11.88;;;5.10;;
31798;SDS011;18374;51.136;3.502;2022-11-15T06:07:29;21.20;;;5.72;;
31798;SDS011;18374;51.136;3.502;2022-11-15T06:10:16;11.68;;;5.93;;
31798;SDS011;18374;51.136;3.502;2022-11-15T06:13:03;16.45;;;5.75;;
31798;SDS011;18374;51.136;3.502;2022-11-15T06:15:50;20.30;;;5.85;;
31798;SDS011;18374;51.136;3.502;2022-11-15T06:18:36;14.85;;;6.28;;
31798;SDS011;18374;51.136;3.502;2022-11-15T06:21:23;16.00;;;6.00;;
31798;SDS011;18374;51.136;3.502;2022-11-15T06:24:10;20.35;;;6.53;;
31798;SDS011;18374;51.136;3.502;2022-11-15T06:26:57;15.10;;;6.38;;
31798;SDS011;18374;51.136;3.502;2022-11-15T06:29:44;21.17;;;7.70;;
31798;SDS011;18374;51.136;3.502;2022-11-15T06:32:31;21.08;;;7.88;;
31798;SDS011;18374;51.136;3.502;2022-11-15T06:35:17;27.27;;;10.48;;
31798;SDS011;18374;51.136;3.502;2022-11-15T06:38:05;27.25;;;10.52;;
31798;SDS011;18374;51.136;3.502;2022-11-15T06:40:55;20.50;;;10.82;;
31798;SDS011;18374;51.136;3.502;2022-11-15T06:43:50;27.25;;;11.77;;
31798;SDS011;18374;51.136;3.502;2022-11-15T06:46:36;26.55;;;12.32;;
31798;SDS011;18374;51.136;3.502;2022-11-15T06:49:22;25.10;;;11.95;;
31798;SDS011;18374;51.136;3.502;2022-11-15T06:52:09;26.10;;;11.90;;
31798;SDS011;18374;51.136;3.502;2022-11-15T06:54:56;21.73;;;11.95;;
31798;SDS011;18374;51.136;3.502;2022-11-15T06:57:46;23.52;;;11.65;;
31798;SDS011;18374;51.136;3.502;2022-11-15T07:00:37;19.30;;;9.80;;
31798;SDS011;18374;51.136;3.502;2022-11-15T07:03:23;17.65;;;10.13;;
31798;SDS011;18374;51.136;3.502;2022-11-15T07:06:12;16.60;;;9.77;;
31798;SDS011;18374;51.136;3.502;2022-11-15T07:08:58;19.52;;;10.20;;
31798;SDS011;18374;51.136;3.502;2022-11-15T07:11:44;17.95;;;9.25;;
31798;SDS011;18374;51.136;3.502;2022-11-15T07:14:32;16.92;;;9.48;;
31798;SDS011;18374;51.136;3.502;2022-11-15T07:17:20;19.08;;;9.77;;
31798;SDS011;18374;51.136;3.502;2022-11-15T07:20:06;22.33;;;10.05;;
31798;SDS011;18374;51.136;3.502;2022-11-15T07:23:00;15.32;;;9.70;;
31798;SDS011;18374;51.136;3.502;2022-11-15T07:25:48;16.73;;;9.30;;
31798;SDS011;18374;51.136;3.502;2022-11-15T07:28:35;14.73;;;8.57;;
31798;SDS011;18374;51.136;3.502;2022-11-15T07:31:22;17.10;;;9.32;;
31798;SDS011;18374;51.136;3.502;2022-11-15T07:34:08;16.40;;;9.60;;
31798;SDS011;18374;51.136;3.502;2022-11-15T07:36:55;17.35;;;9.57;;
31798;SDS011;18374;51.136;3.502;2022-11-15T07:39:41;20.88;;;10.20;;
31798;SDS011;18374;51.136;3.502;2022-11-15T07:42:30;18.42;;;9.43;;
31798;SDS011;18374;51.136;3.502;2022-11-15T07:45:41;20.38;;;8.75;;
31798;SDS011;18374;51.136;3.502;2022-11-15T07:48:31;15.23;;;8.93;;
31798;SDS011;18374;51.136;3.502;2022-11-15T07:51:28;19.13;;;9.48;;
31798;SDS011;18374;51.136;3.502;2022-11-15T07:54:15;18.13;;;7.80;;
31798;SDS011;18374;51.136;3.502;2022-11-15T07:57:01;12.65;;;7.63;;
31798;SDS011;18374;51.136;3.502;2022-11-15T07:59:52;19.40;;;8.02;;
31798;SDS011;18374;51.136;3.502;2022-11-15T08:02:39;11.55;;;7.35;;
31798;SDS011;18374;51.136;3.502;2022-11-15T08:05:28;16.17;;;7.20;;
31798;SDS011;18374;51.136;3.502;2022-11-15T08:11:00;19.88;;;7.65;;
31798;SDS011;18374;51.136;3.502;2022-11-15T08:13:47;14.48;;;6.90;;
31798;SDS011;18374;51.136;3.502;2022-11-15T08:16:35;16.50;;;6.82;;
31798;SDS011;18374;51.136;3.502;2022-11-15T08:19:21;14.30;;;6.68;;
31798;SDS011;18374;51.136;3.502;2022-11-15T08:22:07;17.05;;;6.78;;
31798;SDS011;18374;51.136;3.502;2022-11-15T08:24:53;9.07;;;5.95;;
31798;SDS011;18374;51.136;3.502;2022-11-15T08:27:40;15.38;;;6.38;;
31798;SDS011;18374;51.136;3.502;2022-11-15T08:30:27;14.45;;;6.63;;
31798;SDS011;18374;51.136;3.502;2022-11-15T08:33:14;13.73;;;6.13;;
31798;SDS011;18374;51.136;3.502;2022-11-15T08:36:00;10.48;;;5.43;;
31798;SDS011;18374;51.136;3.502;2022-11-15T08:38:48;8.18;;;5.47;;
31798;SDS011;18374;51.136;3.502;2022-11-15T08:41:35;14.27;;;5.78;;
31798;SDS011;18374;51.136;3.502;2022-11-15T08:44:23;15.65;;;6.20;;
31798;SDS011;18374;51.136;3.502;2022-11-15T08:47:12;9.05;;;5.57;;
31798;SDS011;18374;51.136;3.502;2022-11-15T08:49:59;9.80;;;4.82;;
31798;SDS011;18374;51.136;3.502;2022-11-15T08:52:46;8.25;;;4.50;;
31798;SDS011;18374;51.136;3.502;2022-11-15T08:55:35;9.38;;;4.40;;
31798;SDS011;18374;51.136;3.502;2022-11-15T08:58:23;10.63;;;4.70;;
31798;SDS011;18374;51.136;3.502;2022-11-15T09:01:18;9.00;;;4.13;;
31798;SDS011;18374;51.136;3.502;2022-11-15T09:04:06;7.45;;;3.83;;
31798;SDS011;18374;51.136;3.502;2022-11-15T09:06:52;9.85;;;3.75;;
31798;SDS011;18374;51.136;3.502;2022-11-15T09:09:39;11.15;;;3.50;;
31798;SDS011;18374;51.136;3.502;2022-11-15T09:12:26;8.65;;;3.33;;
31798;SDS011;18374;51.136;3.502;2022-11-15T09:15:12;10.15;;;3.45;;
31798;SDS011;18374;51.136;3.502;2022-11-15T09:17:59;6.45;;;2.97;;
31798;SDS011;18374;51.136;3.502;2022-11-15T09:20:45;7.45;;;2.80;;
31798;SDS011;18374;51.136;3.502;2022-11-15T09:23:32;8.35;;;2.50;;
31798;SDS011;18374;51.136;3.502;2022-11-15T09:26:19;6.75;;;2.58;;
31798;SDS011;18374;51.136;3.502;2022-11-15T09:29:06;5.97;;;2.60;;
31798;SDS011;18374;51.136;3.502;2022-11-15T09:31:53;9.82;;;2.30;;
31798;SDS011;18374;51.136;3.502;2022-11-15T09:37:25;7.93;;;2.30;;
31798;SDS011;18374;51.136;3.502;2022-11-15T09:40:12;11.32;;;2.33;;
31798;SDS011;18374;51.136;3.502;2022-11-15T09:46:21;10.15;;;2.55;;
31798;SDS011;18374;51.136;3.502;2022-11-15T09:49:13;5.60;;;2.00;;
31798;SDS011;18374;51.136;3.502;2022-11-15T09:52:01;7.40;;;2.10;;
31798;SDS011;18374;51.136;3.502;2022-11-15T09:54:34;6.75;;;2.08;;
31798;SDS011;18374;51.136;3.502;2022-11-15T09:57:31;7.75;;;2.13;;
31798;SDS011;18374;51.136;3.502;2022-11-15T10:00:14;6.80;;;2.55;;
31798;SDS011;18374;51.136;3.502;2022-11-15T10:03:26;8.85;;;1.52;;
31798;SDS011;18374;51.136;3.502;2022-11-15T10:05:59;5.70;;;1.63;;
31798;SDS011;18374;51.136;3.502;2022-11-15T10:11:48;12.70;;;2.25;;
31798;SDS011;18374;51.136;3.502;2022-11-15T10:14:18;12.50;;;3.33;;
31798;SDS011;18374;51.136;3.502;2022-11-15T10:20:09;13.18;;;2.33;;
31798;SDS011;18374;51.136;3.502;2022-11-15T10:22:49;6.10;;;1.70;;
31798;SDS011;18374;51.136;3.502;2022-11-15T10:28:39;8.73;;;1.90;;
31798;SDS011;18374;51.136;3.502;2022-11-15T10:30:55;4.25;;;1.58;;
31798;SDS011;18374;51.136;3.502;2022-11-15T10:33:32;4.45;;;1.67;;
31798;SDS011;18374;51.136;3.502;2022-11-15T10:38:55;7.03;;;1.77;;
31798;SDS011;18374;51.136;3.502;2022-11-15T10:46:44;7.70;;;1.60;;
31798;SDS011;18374;51.136;3.502;2022-11-15T10:49:32;8.57;;;2.15;;
31798;SDS011;18374;51.136;3.502;2022-11-15T10:54:40;13.98;;;1.80;;
31798;SDS011;18374;51.136;3.502;2022-11-15T10:57:20;17.23;;;1.85;;
31798;SDS011;18374;51.136;3.502;2022-11-15T11:00:00;5.13;;;1.70;;
31798;SDS011;18374;51.136;3.502;2022-11-15T11:02:56;6.32;;;1.38;;
31798;SDS011;18374;51.136;3.502;2022-11-15T11:29:10;9.35;;;1.77;;
31798;SDS011;18374;51.136;3.502;2022-11-15T11:32:22;3.92;;;1.40;;
31798;SDS011;18374;51.136;3.502;2022-11-15T11:40:44;7.22;;;1.58;;
31798;SDS011;18374;51.136;3.502;2022-11-15T11:48:51;5.00;;;1.35;;
31798;SDS011;18374;51.136;3.502;2022-11-15T11:57:51;5.90;;;1.67;;
31798;SDS011;18374;51.136;3.502;2022-11-15T12:00:28;6.35;;;1.38;;
31798;SDS011;18374;51.136;3.502;2022-11-15T12:03:08;4.30;;;1.38;;
31798;SDS011;18374;51.136;3.502;2022-11-15T12:06:01;9.65;;;1.60;;
31798;SDS011;18374;51.136;3.502;2022-11-15T12:08:43;4.78;;;1.48;;
31798;SDS011;18374;51.136;3.502;2022-11-15T12:11:29;34.47;;;3.28;;
31798;SDS011;18374;51.136;3.502;2022-11-15T12:19:39;11.55;;;1.65;;
31798;SDS011;18374;51.136;3.502;2022-11-15T12:22:16;7.43;;;1.30;;
31798;SDS011;18374;51.136;3.502;2022-11-15T12:28:35;7.13;;;1.30;;
31798;SDS011;18374;51.136;3.502;2022-11-15T12:30:45;7.03;;;0.98;;
31798;SDS011;18374;51.136;3.502;2022-11-15T12:33:36;4.70;;;1.40;;
31798;SDS011;18374;51.136;3.502;2022-11-15T12:38:53;5.65;;;1.23;;
31798;SDS011;18374;51.136;3.502;2022-11-15T12:41:26;4.70;;;1.13;;
31798;SDS011;18374;51.136;3.502;2022-11-15T12:43:59;4.80;;;1.33;;
31798;SDS011;18374;51.136;3.502;2022-11-15T12:49:09;4.95;;;1.45;;
31798;SDS011;18374;51.136;3.502;2022-11-15T12:55:28;5.40;;;1.30;;
31798;SDS011;18374;51.136;3.502;2022-11-15T13:02:41;54.75;;;6.13;;
31798;SDS011;18374;51.136;3.502;2022-11-15T13:20:27;5.03;;;1.30;;
31798;SDS011;18374;51.136;3.502;2022-11-15T13:28:29;15.10;;;1.50;;
31798;SDS011;18374;51.136;3.502;2022-11-15T13:31:21;3.53;;;1.17;;
31798;SDS011;18374;51.136;3.502;2022-11-15T13:34:20;3.03;;;1.38;;
31798;SDS011;18374;51.136;3.502;2022-11-15T13:39:48;3.45;;;1.38;;
31798;SDS011;18374;51.136;3.502;2022-11-15T13:42:17;8.00;;;1.42;;
31798;SDS011;18374;51.136;3.502;2022-11-15T13:44:57;3.85;;;1.23;;
31798;SDS011;18374;51.136;3.502;2022-11-15T13:47:31;3.05;;;1.17;;
31798;SDS011;18374;51.136;3.502;2022-11-15T13:49:59;5.10;;;1.40;;
31798;SDS011;18374;51.136;3.502;2022-11-15T13:52:38;1.42;;;1.02;;
31798;SDS011;18374;51.136;3.502;2022-11-15T13:55:11;3.03;;;1.33;;
31798;SDS011;18374;51.136;3.502;2022-11-15T13:57:44;4.25;;;1.40;;
31798;SDS011;18374;51.136;3.502;2022-11-15T14:03:06;3.55;;;1.55;;
31798;SDS011;18374;51.136;3.502;2022-11-15T14:06:01;2.95;;;1.58;;
31798;SDS011;18374;51.136;3.502;2022-11-15T14:08:34;3.20;;;1.50;;
31798;SDS011;18374;51.136;3.502;2022-11-15T14:11:21;5.93;;;1.67;;
31798;SDS011;18374;51.136;3.502;2022-11-15T14:16:36;10.73;;;1.95;;
31798;SDS011;18374;51.136;3.502;2022-11-15T14:19:11;6.25;;;1.92;;
31798;SDS011;18374;51.136;3.502;2022-11-15T14:25:04;9.02;;;2.30;;
31798;SDS011;18374;51.136;3.502;2022-11-15T14:30:49;5.07;;;1.95;;
31798;SDS011;18374;51.136;3.502;2022-11-15T14:36:06;3.50;;;1.98;;
31798;SDS011;18374;51.136;3.502;2022-11-15T14:38:42;7.22;;;2.30;;
31798;SDS011;18374;51.136;3.502;2022-11-15T14:44:09;2.83;;;2.00;;
31798;SDS011;18374;51.136;3.502;2022-11-15T14:46:39;6.22;;;1.70;;
31798;SDS011;18374;51.136;3.502;2022-11-15T14:49:06;4.75;;;2.17;;
31798;SDS011;18374;51.136;3.502;2022-11-15T14:51:34;23.15;;;2.97;;
31798;SDS011;18374;51.136;3.502;2022-11-15T14:54:02;6.45;;;1.95;;
31798;SDS011;18374;51.136;3.502;2022-11-15T14:56:30;26.90;;;3.83;;
31798;SDS011;18374;51.136;3.502;2022-11-15T14:58:57;4.82;;;2.03;;
31798;SDS011;18374;51.136;3.502;2022-11-15T15:01:26;5.40;;;2.27;;
31798;SDS011;18374;51.136;3.502;2022-11-15T15:03:54;5.97;;;2.22;;
31798;SDS011;18374;51.136;3.502;2022-11-15T15:06:25;6.53;;;2.38;;
31798;SDS011;18374;51.136;3.502;2022-11-15T15:08:53;10.30;;;2.63;;
31798;SDS011;18374;51.136;3.502;2022-11-15T15:11:22;6.97;;;2.40;;
31798;SDS011;18374;51.136;3.502;2022-11-15T15:13:53;4.82;;;2.80;;
31798;SDS011;18374;51.136;3.502;2022-11-15T15:16:24;6.75;;;2.85;;
31798;SDS011;18374;51.136;3.502;2022-11-15T15:18:51;7.18;;;2.72;;
31798;SDS011;18374;51.136;3.502;2022-11-15T15:21:20;4.32;;;2.88;;
31798;SDS011;18374;51.136;3.502;2022-11-15T15:24:03;4.88;;;2.58;;
31798;SDS011;18374;51.136;3.502;2022-11-15T15:26:31;7.47;;;3.72;;
31798;SDS011;18374;51.136;3.502;2022-11-15T15:29:03;5.78;;;2.97;;
31798;SDS011;18374;51.136;3.502;2022-11-15T15:31:31;8.88;;;3.00;;
31798;SDS011;18374;51.136;3.502;2022-11-15T15:34:00;7.38;;;3.78;;
31798;SDS011;18374;51.136;3.502;2022-11-15T15:36:28;10.30;;;3.47;;
31798;SDS011;18374;51.136;3.502;2022-11-15T15:38:55;15.70;;;3.75;;
31798;SDS011;18374;51.136;3.502;2022-11-15T15:41:23;6.22;;;3.20;;
31798;SDS011;18374;51.136;3.502;2022-11-15T15:43:51;6.95;;;3.50;;
31798;SDS011;18374;51.136;3.502;2022-11-15T15:46:18;6.28;;;3.17;;
31798;SDS011;18374;51.136;3.502;2022-11-15T15:48:47;7.88;;;3.53;;
31798;SDS011;18374;51.136;3.502;2022-11-15T15:51:15;6.60;;;3.70;;
31798;SDS011;18374;51.136;3.502;2022-11-15T15:53:47;13.48;;;3.92;;
31798;SDS011;18374;51.136;3.502;2022-11-15T15:56:15;7.28;;;3.47;;
31798;SDS011;18374;51.136;3.502;2022-11-15T15:58:43;11.90;;;4.47;;
31798;SDS011;18374;51.136;3.502;2022-11-15T16:01:10;7.53;;;4.00;;
31798;SDS011;18374;51.136;3.502;2022-11-15T16:03:38;15.30;;;4.25;;
31798;SDS011;18374;51.136;3.502;2022-11-15T16:06:22;8.18;;;4.45;;
31798;SDS011;18374;51.136;3.502;2022-11-15T16:09:02;5.18;;;4.07;;
31798;SDS011;18374;51.136;3.502;2022-11-15T16:11:47;9.45;;;4.15;;
31798;SDS011;18374;51.136;3.502;2022-11-15T16:14:14;7.05;;;3.90;;
31798;SDS011;18374;51.136;3.502;2022-11-15T16:16:42;7.38;;;4.03;;
31798;SDS011;18374;51.136;3.502;2022-11-15T16:19:10;6.53;;;4.40;;
31798;SDS011;18374;51.136;3.502;2022-11-15T16:21:38;8.27;;;4.32;;
31798;SDS011;18374;51.136;3.502;2022-11-15T16:24:06;9.38;;;4.75;;
31798;SDS011;18374;51.136;3.502;2022-11-15T16:26:34;7.70;;;4.43;;
31798;SDS011;18374;51.136;3.502;2022-11-15T16:29:02;6.20;;;4.72;;
31798;SDS011;18374;51.136;3.502;2022-11-15T16:31:30;7.25;;;4.70;;
31798;SDS011;18374;51.136;3.502;2022-11-15T16:33:58;7.28;;;4.50;;
31798;SDS011;18374;51.136;3.502;2022-11-15T16:36:25;8.07;;;4.07;;
31798;SDS011;18374;51.136;3.502;2022-11-15T16:38:57;6.90;;;4.72;;
31798;SDS011;18374;51.136;3.502;2022-11-15T16:41:26;13.07;;;5.30;;
31798;SDS011;18374;51.136;3.502;2022-11-15T16:43:53;8.70;;;4.70;;
31798;SDS011;18374;51.136;3.502;2022-11-15T16:46:22;7.38;;;4.45;;
31798;SDS011;18374;51.136;3.502;2022-11-15T16:48:53;5.63;;;4.65;;
31798;SDS011;18374;51.136;3.502;2022-11-15T16:51:21;7.75;;;4.18;;
31798;SDS011;18374;51.136;3.502;2022-11-15T16:53:49;8.18;;;4.10;;
31798;SDS011;18374;51.136;3.502;2022-11-15T16:56:27;5.85;;;4.18;;
31798;SDS011;18374;51.136;3.502;2022-11-15T16:58:58;10.88;;;4.57;;
31798;SDS011;18374;51.136;3.502;2022-11-15T17:01:28;6.82;;;4.57;;
31798;SDS011;18374;51.136;3.502;2022-11-15T17:03:59;12.20;;;4.70;;
31798;SDS011;18374;51.136;3.502;2022-11-15T17:06:39;7.03;;;4.75;;
31798;SDS011;18374;51.136;3.502;2022-11-15T17:09:18;6.15;;;4.68;;
31798;SDS011;18374;51.136;3.502;2022-11-15T17:11:50;6.63;;;4.90;;
31798;SDS011;18374;51.136;3.502;2022-11-15T17:14:19;8.55;;;5.53;;
31798;SDS011;18374;51.136;3.502;2022-11-15T17:16:47;8.73;;;5.20;;
31798;SDS011;18374;51.136;3.502;2022-11-15T17:19:16;9.52;;;5.57;;
31798;SDS011;18374;51.136;3.502;2022-11-15T17:21:46;10.25;;;5.75;;
31798;SDS011;18374;51.136;3.502;2022-11-15T17:24:17;9.05;;;5.72;;
31798;SDS011;18374;51.136;3.502;2022-11-15T17:26:47;11.02;;;5.55;;
31798;SDS011;18374;51.136;3.502;2022-11-15T17:29:15;7.10;;;5.38;;
31798;SDS011;18374;51.136;3.502;2022-11-15T17:31:42;8.27;;;5.40;;
31798;SDS011;18374;51.136;3.502;2022-11-15T17:34:10;6.38;;;5.25;;
31798;SDS011;18374;51.136;3.502;2022-11-15T17:36:38;8.68;;;5.45;;
31798;SDS011;18374;51.136;3.502;2022-11-15T17:39:06;8.48;;;5.80;;
31798;SDS011;18374;51.136;3.502;2022-11-15T17:41:34;9.52;;;5.72;;
31798;SDS011;18374;51.136;3.502;2022-11-15T17:44:02;7.18;;;5.30;;
31798;SDS011;18374;51.136;3.502;2022-11-15T17:46:30;9.15;;;5.53;;
31798;SDS011;18374;51.136;3.502;2022-11-15T17:49:00;8.45;;;5.65;;
31798;SDS011;18374;51.136;3.502;2022-11-15T17:51:27;8.25;;;5.40;;
31798;SDS011;18374;51.136;3.502;2022-11-15T17:53:55;9.48;;;6.35;;
31798;SDS011;18374;51.136;3.502;2022-11-15T17:56:24;7.68;;;6.07;;
31798;SDS011;18374;51.136;3.502;2022-11-15T17:58:55;10.93;;;5.93;;
31798;SDS011;18374;51.136;3.502;2022-11-15T18:01:30;9.05;;;5.80;;
31798;SDS011;18374;51.136;3.502;2022-11-15T18:04:01;7.43;;;5.85;;
31798;SDS011;18374;51.136;3.502;2022-11-15T18:06:32;9.38;;;6.22;;
31798;SDS011;18374;51.136;3.502;2022-11-15T18:09:02;9.48;;;6.63;;
31798;SDS011;18374;51.136;3.502;2022-11-15T18:11:34;11.10;;;6.93;;
31798;SDS011;18374;51.136;3.502;2022-11-15T18:14:09;13.73;;;7.30;;
31798;SDS011;18374;51.136;3.502;2022-11-15T18:19:09;8.27;;;5.80;;
31798;SDS011;18374;51.136;3.502;2022-11-15T18:21:41;8.18;;;6.30;;
31798;SDS011;18374;51.136;3.502;2022-11-15T18:24:31;9.88;;;6.20;;
31798;SDS011;18374;51.136;3.502;2022-11-15T18:27:02;8.73;;;6.47;;
31798;SDS011;18374;51.136;3.502;2022-11-15T18:29:31;8.77;;;6.30;;
31798;SDS011;18374;51.136;3.502;2022-11-15T18:32:04;8.15;;;6.45;;
31798;SDS011;18374;51.136;3.502;2022-11-15T18:37:06;10.73;;;6.32;;
31798;SDS011;18374;51.136;3.502;2022-11-15T18:39:34;11.02;;;7.18;;
31798;SDS011;18374;51.136;3.502;2022-11-15T18:42:02;9.48;;;6.55;;
31798;SDS011;18374;51.136;3.502;2022-11-15T18:44:31;9.60;;;7.22;;
31798;SDS011;18374;51.136;3.502;2022-11-15T18:47:00;8.57;;;6.70;;
31798;SDS011;18374;51.136;3.502;2022-11-15T18:49:28;9.30;;;6.50;;
31798;SDS011;18374;51.136;3.502;2022-11-15T18:56:08;11.55;;;7.30;;
31798;SDS011;18374;51.136;3.502;2022-11-15T19:00:25;11.70;;;7.10;;
31798;SDS011;18374;51.136;3.502;2022-11-15T19:02:53;8.13;;;6.53;;
31798;SDS011;18374;51.136;3.502;2022-11-15T19:05:21;9.50;;;6.53;;
31798;SDS011;18374;51.136;3.502;2022-11-15T19:07:59;10.88;;;6.95;;
31798;SDS011;18374;51.136;3.502;2022-11-15T19:10:28;8.93;;;7.20;;
31798;SDS011;18374;51.136;3.502;2022-11-15T19:12:59;12.38;;;7.25;;
31798;SDS011;18374;51.136;3.502;2022-11-15T19:15:27;10.18;;;7.13;;
31798;SDS011;18374;51.136;3.502;2022-11-15T19:21:51;8.77;;;6.90;;
31798;SDS011;18374;51.136;3.502;2022-11-15T19:27:19;8.55;;;6.20;;